sensor_id;sensor_type;location;lat;lon;timestamp;P1;durP1;ratioP1;P2;durP2;ratioP2
3700;SDS011;1866;48.374;10.766;2022-07-05T00:00:20;98.87;;;6.00;;
3700;SDS011;1866;48.374;10.766;2022-07-05T00:02:55;98.40;;;5.80;;
3700;SDS011;1866;48.374;10.766;2022-07-05T00:05:22;96.47;;;5.10;;
3700;SDS011;1866;48.374;10.766;2022-07-05T00:07:50;98.37;;;5.90;;
3700;SDS011;1866;48.374;10.766;2022-07-05T00:10:17;98.13;;;5.30;;
3700;SDS011;1866;48.374;10.766;2022-07-05T00:12:44;104.27;;;5.90;;
3700;SDS011;1866;48.374;10.766;2022-07-05T00:15:11;98.67;;;5.80;;
3700;SDS011;1866;48.374;10.766;2022-07-05T00:17:38;99.17;;;5.47;;
3700;SDS011;1866;48.374;10.766;2022-07-05T00:20:06;99.77;;;5.20;;
3700;SDS011;1866;48.374;10.766;2022-07-05T00:22:35;98.47;;;5.87;;
3700;SDS011;1866;48.374;10.766;2022-07-05T00:25:04;101.93;;;5.90;;
3700;SDS011;1866;48.374;10.766;2022-07-05T00:27:31;101.63;;;5.90;;
3700;SDS011;1866;48.374;10.766;2022-07-05T00:29:58;96.97;;;5.23;;
3700;SDS011;1866;48.374;10.766;2022-07-05T00:32:25;97.80;;;5.83;;
3700;SDS011;1866;48.374;10.766;2022-07-05T00:34:52;98.37;;;5.77;;
3700;SDS011;1866;48.374;10.766;2022-07-05T00:37:19;99.73;;;5.47;;
3700;SDS011;1866;48.374;10.766;2022-07-05T00:39:46;98.70;;;6.10;;
3700;SDS011;1866;48.374;10.766;2022-07-05T00:42:14;97.47;;;6.07;;
3700;SDS011;1866;48.374;10.766;2022-07-05T00:44:42;97.17;;;5.60;;
3700;SDS011;1866;48.374;10.766;2022-07-05T00:47:11;99.47;;;6.47;;
3700;SDS011;1866;48.374;10.766;2022-07-05T00:49:39;100.70;;;6.13;;
3700;SDS011;1866;48.374;10.766;2022-07-05T00:52:07;112.93;;;6.10;;
3700;SDS011;1866;48.374;10.766;2022-07-05T00:54:34;97.57;;;5.30;;
3700;SDS011;1866;48.374;10.766;2022-07-05T00:57:05;100.20;;;5.90;;
3700;SDS011;1866;48.374;10.766;2022-07-05T00:59:34;97.20;;;5.67;;
3700;SDS011;1866;48.374;10.766;2022-07-05T01:02:01;98.43;;;5.77;;
3700;SDS011;1866;48.374;10.766;2022-07-05T01:04:28;98.47;;;6.40;;
3700;SDS011;1866;48.374;10.766;2022-07-05T01:06:55;100.87;;;6.63;;
3700;SDS011;1866;48.374;10.766;2022-07-05T01:09:22;98.60;;;5.97;;
3700;SDS011;1866;48.374;10.766;2022-07-05T01:11:50;97.97;;;6.13;;
3700;SDS011;1866;48.374;10.766;2022-07-05T01:14:18;98.23;;;5.60;;
3700;SDS011;1866;48.374;10.766;2022-07-05T01:16:48;98.37;;;5.50;;
3700;SDS011;1866;48.374;10.766;2022-07-05T01:19:15;97.27;;;5.20;;
3700;SDS011;1866;48.374;10.766;2022-07-05T01:21:43;97.40;;;5.53;;
3700;SDS011;1866;48.374;10.766;2022-07-05T01:24:14;99.20;;;5.53;;
3700;SDS011;1866;48.374;10.766;2022-07-05T01:26:44;99.40;;;5.80;;
3700;SDS011;1866;48.374;10.766;2022-07-05T01:29:14;97.43;;;5.50;;
3700;SDS011;1866;48.374;10.766;2022-07-05T01:31:41;101.37;;;6.33;;
3700;SDS011;1866;48.374;10.766;2022-07-05T01:34:10;99.53;;;6.33;;
3700;SDS011;1866;48.374;10.766;2022-07-05T01:36:39;100.77;;;6.97;;
3700;SDS011;1866;48.374;10.766;2022-07-05T01:39:06;102.80;;;5.87;;
3700;SDS011;1866;48.374;10.766;2022-07-05T01:41:35;100.47;;;5.80;;
3700;SDS011;1866;48.374;10.766;2022-07-05T01:44:02;103.00;;;7.03;;
3700;SDS011;1866;48.374;10.766;2022-07-05T01:46:31;98.00;;;5.90;;
3700;SDS011;1866;48.374;10.766;2022-07-05T01:49:03;101.27;;;6.30;;
3700;SDS011;1866;48.374;10.766;2022-07-05T01:51:33;98.40;;;5.90;;
3700;SDS011;1866;48.374;10.766;2022-07-05T01:54:01;97.77;;;5.60;;
3700;SDS011;1866;48.374;10.766;2022-07-05T01:56:28;97.70;;;5.67;;
3700;SDS011;1866;48.374;10.766;2022-07-05T01:58:57;98.13;;;5.67;;
3700;SDS011;1866;48.374;10.766;2022-07-05T02:01:31;119.03;;;6.40;;
3700;SDS011;1866;48.374;10.766;2022-07-05T02:03:58;98.00;;;5.73;;
3700;SDS011;1866;48.374;10.766;2022-07-05T02:06:25;100.87;;;6.10;;
3700;SDS011;1866;48.374;10.766;2022-07-05T02:08:54;98.07;;;6.40;;
3700;SDS011;1866;48.374;10.766;2022-07-05T02:11:20;97.73;;;5.80;;
3700;SDS011;1866;48.374;10.766;2022-07-05T02:13:48;99.10;;;6.00;;
3700;SDS011;1866;48.374;10.766;2022-07-05T02:16:17;98.90;;;6.13;;
3700;SDS011;1866;48.374;10.766;2022-07-05T02:18:44;98.80;;;6.40;;
3700;SDS011;1866;48.374;10.766;2022-07-05T02:21:10;98.20;;;6.20;;
3700;SDS011;1866;48.374;10.766;2022-07-05T02:23:38;98.37;;;6.37;;
3700;SDS011;1866;48.374;10.766;2022-07-05T02:26:05;101.93;;;7.07;;
3700;SDS011;1866;48.374;10.766;2022-07-05T02:28:33;98.07;;;5.97;;
3700;SDS011;1866;48.374;10.766;2022-07-05T02:31:00;101.27;;;6.70;;
3700;SDS011;1866;48.374;10.766;2022-07-05T02:33:31;99.37;;;6.87;;
3700;SDS011;1866;48.374;10.766;2022-07-05T02:36:02;99.87;;;6.03;;
3700;SDS011;1866;48.374;10.766;2022-07-05T02:38:33;100.50;;;6.20;;
3700;SDS011;1866;48.374;10.766;2022-07-05T02:41:00;99.00;;;6.30;;
3700;SDS011;1866;48.374;10.766;2022-07-05T02:43:27;98.80;;;6.20;;
3700;SDS011;1866;48.374;10.766;2022-07-05T02:45:53;98.10;;;5.87;;
3700;SDS011;1866;48.374;10.766;2022-07-05T02:48:20;99.00;;;6.33;;
3700;SDS011;1866;48.374;10.766;2022-07-05T02:50:49;100.17;;;6.50;;
3700;SDS011;1866;48.374;10.766;2022-07-05T02:53:16;99.50;;;6.77;;
3700;SDS011;1866;48.374;10.766;2022-07-05T02:55:43;102.23;;;6.40;;
3700;SDS011;1866;48.374;10.766;2022-07-05T02:58:10;98.10;;;6.00;;
3700;SDS011;1866;48.374;10.766;2022-07-05T03:00:37;101.13;;;6.30;;
3700;SDS011;1866;48.374;10.766;2022-07-05T03:03:04;98.27;;;5.77;;
3700;SDS011;1866;48.374;10.766;2022-07-05T03:05:31;99.63;;;6.40;;
3700;SDS011;1866;48.374;10.766;2022-07-05T03:08:00;98.77;;;6.30;;
3700;SDS011;1866;48.374;10.766;2022-07-05T03:10:27;99.70;;;6.80;;
3700;SDS011;1866;48.374;10.766;2022-07-05T03:12:54;98.67;;;6.47;;
3700;SDS011;1866;48.374;10.766;2022-07-05T03:15:20;99.43;;;6.50;;
3700;SDS011;1866;48.374;10.766;2022-07-05T03:17:47;102.77;;;7.17;;
3700;SDS011;1866;48.374;10.766;2022-07-05T03:20:14;101.30;;;5.60;;
3700;SDS011;1866;48.374;10.766;2022-07-05T03:22:41;100.87;;;5.93;;
3700;SDS011;1866;48.374;10.766;2022-07-05T03:25:10;100.90;;;6.70;;
3700;SDS011;1866;48.374;10.766;2022-07-05T03:27:37;100.17;;;6.33;;
3700;SDS011;1866;48.374;10.766;2022-07-05T03:30:04;105.03;;;6.53;;
3700;SDS011;1866;48.374;10.766;2022-07-05T03:32:35;100.10;;;5.90;;
3700;SDS011;1866;48.374;10.766;2022-07-05T03:35:02;100.20;;;6.93;;
3700;SDS011;1866;48.374;10.766;2022-07-05T03:37:30;100.60;;;5.93;;
3700;SDS011;1866;48.374;10.766;2022-07-05T03:39:57;99.77;;;6.20;;
3700;SDS011;1866;48.374;10.766;2022-07-05T03:42:26;99.07;;;6.40;;
3700;SDS011;1866;48.374;10.766;2022-07-05T03:44:53;99.17;;;6.33;;
3700;SDS011;1866;48.374;10.766;2022-07-05T03:47:20;100.47;;;5.90;;
3700;SDS011;1866;48.374;10.766;2022-07-05T03:49:47;98.93;;;6.27;;
3700;SDS011;1866;48.374;10.766;2022-07-05T03:52:14;97.17;;;5.83;;
3700;SDS011;1866;48.374;10.766;2022-07-05T03:54:45;105.43;;;7.07;;
3700;SDS011;1866;48.374;10.766;2022-07-05T03:57:15;103.87;;;6.60;;
3700;SDS011;1866;48.374;10.766;2022-07-05T03:59:43;98.93;;;6.20;;
3700;SDS011;1866;48.374;10.766;2022-07-05T04:02:10;98.33;;;5.90;;
3700;SDS011;1866;48.374;10.766;2022-07-05T04:04:37;100.43;;;6.80;;
3700;SDS011;1866;48.374;10.766;2022-07-05T04:07:04;99.70;;;7.13;;
3700;SDS011;1866;48.374;10.766;2022-07-05T04:09:31;101.10;;;6.43;;
3700;SDS011;1866;48.374;10.766;2022-07-05T04:11:58;105.37;;;5.90;;
3700;SDS011;1866;48.374;10.766;2022-07-05T04:14:27;105.67;;;6.77;;
3700;SDS011;1866;48.374;10.766;2022-07-05T04:16:55;99.00;;;5.60;;
3700;SDS011;1866;48.374;10.766;2022-07-05T04:19:22;99.27;;;5.53;;
3700;SDS011;1866;48.374;10.766;2022-07-05T04:21:50;111.83;;;5.67;;
3700;SDS011;1866;48.374;10.766;2022-07-05T04:24:17;97.60;;;5.00;;
3700;SDS011;1866;48.374;10.766;2022-07-05T04:26:43;97.97;;;5.00;;
3700;SDS011;1866;48.374;10.766;2022-07-05T04:29:10;97.73;;;5.00;;
3700;SDS011;1866;48.374;10.766;2022-07-05T04:31:37;96.03;;;4.83;;
3700;SDS011;1866;48.374;10.766;2022-07-05T04:34:06;95.80;;;4.97;;
3700;SDS011;1866;48.374;10.766;2022-07-05T04:36:35;95.27;;;4.70;;
3700;SDS011;1866;48.374;10.766;2022-07-05T04:39:05;95.17;;;4.20;;
3700;SDS011;1866;48.374;10.766;2022-07-05T04:41:32;94.70;;;5.07;;
3700;SDS011;1866;48.374;10.766;2022-07-05T04:44:02;92.90;;;4.33;;
3700;SDS011;1866;48.374;10.766;2022-07-05T04:46:29;94.27;;;4.97;;
3700;SDS011;1866;48.374;10.766;2022-07-05T04:48:56;93.23;;;4.50;;
3700;SDS011;1866;48.374;10.766;2022-07-05T04:51:24;96.20;;;4.77;;
3700;SDS011;1866;48.374;10.766;2022-07-05T04:53:52;93.60;;;4.40;;
3700;SDS011;1866;48.374;10.766;2022-07-05T04:56:21;94.40;;;4.63;;
3700;SDS011;1866;48.374;10.766;2022-07-05T04:58:48;94.20;;;4.40;;
3700;SDS011;1866;48.374;10.766;2022-07-05T05:01:17;95.17;;;4.53;;
3700;SDS011;1866;48.374;10.766;2022-07-05T05:03:44;94.07;;;4.60;;
3700;SDS011;1866;48.374;10.766;2022-07-05T05:06:13;96.60;;;5.23;;
3700;SDS011;1866;48.374;10.766;2022-07-05T05:08:44;96.23;;;5.10;;
3700;SDS011;1866;48.374;10.766;2022-07-05T05:11:11;96.00;;;5.30;;
3700;SDS011;1866;48.374;10.766;2022-07-05T05:13:38;101.10;;;5.10;;
3700;SDS011;1866;48.374;10.766;2022-07-05T05:16:10;96.30;;;5.30;;
3700;SDS011;1866;48.374;10.766;2022-07-05T05:18:37;99.77;;;5.60;;
3700;SDS011;1866;48.374;10.766;2022-07-05T05:21:04;97.57;;;5.80;;
3700;SDS011;1866;48.374;10.766;2022-07-05T05:23:31;103.27;;;6.20;;
3700;SDS011;1866;48.374;10.766;2022-07-05T05:25:59;96.37;;;5.10;;
3700;SDS011;1866;48.374;10.766;2022-07-05T05:28:26;107.60;;;6.07;;
3700;SDS011;1866;48.374;10.766;2022-07-05T05:30:54;98.17;;;6.27;;
3700;SDS011;1866;48.374;10.766;2022-07-05T05:33:22;97.77;;;5.50;;
3700;SDS011;1866;48.374;10.766;2022-07-05T05:35:49;96.73;;;5.53;;
3700;SDS011;1866;48.374;10.766;2022-07-05T05:38:16;96.50;;;5.60;;
3700;SDS011;1866;48.374;10.766;2022-07-05T05:40:43;96.10;;;5.10;;
3700;SDS011;1866;48.374;10.766;2022-07-05T05:43:12;100.73;;;5.73;;
3700;SDS011;1866;48.374;10.766;2022-07-05T05:45:42;103.00;;;6.83;;
3700;SDS011;1866;48.374;10.766;2022-07-05T05:48:09;99.87;;;6.67;;
3700;SDS011;1866;48.374;10.766;2022-07-05T05:50:37;98.97;;;6.23;;
3700;SDS011;1866;48.374;10.766;2022-07-05T05:53:05;97.17;;;6.40;;
3700;SDS011;1866;48.374;10.766;2022-07-05T05:55:33;97.97;;;5.70;;
3700;SDS011;1866;48.374;10.766;2022-07-05T05:58:10;97.60;;;5.87;;
3700;SDS011;1866;48.374;10.766;2022-07-05T06:00:39;96.20;;;5.57;;
3700;SDS011;1866;48.374;10.766;2022-07-05T06:03:06;96.90;;;5.60;;
3700;SDS011;1866;48.374;10.766;2022-07-05T06:05:34;99.90;;;6.07;;
3700;SDS011;1866;48.374;10.766;2022-07-05T06:08:01;96.17;;;5.47;;
3700;SDS011;1866;48.374;10.766;2022-07-05T06:10:28;96.77;;;4.97;;
3700;SDS011;1866;48.374;10.766;2022-07-05T06:12:56;97.77;;;5.40;;
3700;SDS011;1866;48.374;10.766;2022-07-05T06:15:26;98.07;;;5.77;;
3700;SDS011;1866;48.374;10.766;2022-07-05T06:17:53;96.87;;;5.27;;
3700;SDS011;1866;48.374;10.766;2022-07-05T06:20:20;96.33;;;5.20;;
3700;SDS011;1866;48.374;10.766;2022-07-05T06:22:49;96.80;;;5.23;;
3700;SDS011;1866;48.374;10.766;2022-07-05T06:25:17;97.07;;;5.13;;
3700;SDS011;1866;48.374;10.766;2022-07-05T06:27:44;97.10;;;5.53;;
3700;SDS011;1866;48.374;10.766;2022-07-05T06:30:14;95.80;;;5.07;;
3700;SDS011;1866;48.374;10.766;2022-07-05T06:32:43;95.60;;;4.80;;
3700;SDS011;1866;48.374;10.766;2022-07-05T06:35:11;106.50;;;5.63;;
3700;SDS011;1866;48.374;10.766;2022-07-05T06:37:41;97.40;;;6.30;;
3700;SDS011;1866;48.374;10.766;2022-07-05T06:40:11;98.40;;;5.20;;
3700;SDS011;1866;48.374;10.766;2022-07-05T06:42:39;97.00;;;5.20;;
3700;SDS011;1866;48.374;10.766;2022-07-05T06:45:06;98.33;;;5.27;;
3700;SDS011;1866;48.374;10.766;2022-07-05T06:47:34;96.77;;;5.57;;
3700;SDS011;1866;48.374;10.766;2022-07-05T06:50:02;95.80;;;4.87;;
3700;SDS011;1866;48.374;10.766;2022-07-05T06:52:30;94.77;;;4.90;;
3700;SDS011;1866;48.374;10.766;2022-07-05T06:54:58;96.07;;;4.80;;
3700;SDS011;1866;48.374;10.766;2022-07-05T06:57:26;95.80;;;5.00;;
3700;SDS011;1866;48.374;10.766;2022-07-05T06:59:54;100.50;;;5.13;;
3700;SDS011;1866;48.374;10.766;2022-07-05T07:02:21;97.17;;;5.30;;
3700;SDS011;1866;48.374;10.766;2022-07-05T07:04:51;96.97;;;4.53;;
3700;SDS011;1866;48.374;10.766;2022-07-05T07:07:22;97.67;;;5.10;;
3700;SDS011;1866;48.374;10.766;2022-07-05T07:10:07;97.20;;;5.20;;
3700;SDS011;1866;48.374;10.766;2022-07-05T07:12:34;97.03;;;5.40;;
3700;SDS011;1866;48.374;10.766;2022-07-05T07:15:03;103.17;;;5.20;;
3700;SDS011;1866;48.374;10.766;2022-07-05T07:17:33;94.77;;;4.70;;
3700;SDS011;1866;48.374;10.766;2022-07-05T07:20:00;94.87;;;4.73;;
3700;SDS011;1866;48.374;10.766;2022-07-05T07:22:29;95.10;;;4.90;;
3700;SDS011;1866;48.374;10.766;2022-07-05T07:24:56;95.47;;;4.80;;
3700;SDS011;1866;48.374;10.766;2022-07-05T07:27:23;95.67;;;4.40;;
3700;SDS011;1866;48.374;10.766;2022-07-05T07:29:51;94.77;;;4.57;;
3700;SDS011;1866;48.374;10.766;2022-07-05T07:32:18;96.00;;;4.77;;
3700;SDS011;1866;48.374;10.766;2022-07-05T07:34:48;95.20;;;4.63;;
3700;SDS011;1866;48.374;10.766;2022-07-05T07:37:15;97.03;;;4.20;;
3700;SDS011;1866;48.374;10.766;2022-07-05T07:39:45;94.47;;;4.27;;
3700;SDS011;1866;48.374;10.766;2022-07-05T07:42:12;95.03;;;4.57;;
3700;SDS011;1866;48.374;10.766;2022-07-05T07:44:39;94.30;;;4.47;;
3700;SDS011;1866;48.374;10.766;2022-07-05T07:47:05;99.40;;;4.70;;
3700;SDS011;1866;48.374;10.766;2022-07-05T07:49:32;93.90;;;4.30;;
3700;SDS011;1866;48.374;10.766;2022-07-05T07:52:01;97.20;;;4.80;;
3700;SDS011;1866;48.374;10.766;2022-07-05T07:54:30;94.57;;;4.50;;
3700;SDS011;1866;48.374;10.766;2022-07-05T07:56:58;95.83;;;4.70;;
3700;SDS011;1866;48.374;10.766;2022-07-05T07:59:27;94.07;;;4.17;;
3700;SDS011;1866;48.374;10.766;2022-07-05T08:01:53;94.33;;;4.80;;
3700;SDS011;1866;48.374;10.766;2022-07-05T08:04:20;99.50;;;4.33;;
3700;SDS011;1866;48.374;10.766;2022-07-05T08:06:47;94.40;;;4.40;;
3700;SDS011;1866;48.374;10.766;2022-07-05T08:09:14;94.57;;;4.53;;
3700;SDS011;1866;48.374;10.766;2022-07-05T08:11:42;94.30;;;4.30;;
3700;SDS011;1866;48.374;10.766;2022-07-05T08:14:11;94.73;;;4.40;;
3700;SDS011;1866;48.374;10.766;2022-07-05T08:16:38;96.20;;;4.20;;
3700;SDS011;1866;48.374;10.766;2022-07-05T08:19:05;93.77;;;4.10;;
3700;SDS011;1866;48.374;10.766;2022-07-05T08:21:49;93.87;;;4.23;;
3700;SDS011;1866;48.374;10.766;2022-07-05T08:24:16;93.77;;;4.20;;
3700;SDS011;1866;48.374;10.766;2022-07-05T08:26:43;95.33;;;4.40;;
3700;SDS011;1866;48.374;10.766;2022-07-05T08:29:12;93.90;;;4.10;;
3700;SDS011;1866;48.374;10.766;2022-07-05T08:31:40;93.20;;;3.80;;
3700;SDS011;1866;48.374;10.766;2022-07-05T08:34:09;93.27;;;3.80;;
3700;SDS011;1866;48.374;10.766;2022-07-05T08:36:36;93.40;;;4.10;;
3700;SDS011;1866;48.374;10.766;2022-07-05T08:39:04;94.17;;;4.27;;
3700;SDS011;1866;48.374;10.766;2022-07-05T08:41:32;93.60;;;4.30;;
3700;SDS011;1866;48.374;10.766;2022-07-05T08:44:02;94.20;;;4.30;;
3700;SDS011;1866;48.374;10.766;2022-07-05T08:46:31;93.13;;;4.10;;
3700;SDS011;1866;48.374;10.766;2022-07-05T08:48:59;94.20;;;4.00;;
3700;SDS011;1866;48.374;10.766;2022-07-05T08:51:30;93.80;;;4.30;;
3700;SDS011;1866;48.374;10.766;2022-07-05T08:54:00;97.07;;;4.70;;
3700;SDS011;1866;48.374;10.766;2022-07-05T08:56:27;93.87;;;4.03;;
3700;SDS011;1866;48.374;10.766;2022-07-05T08:58:55;93.10;;;4.10;;
3700;SDS011;1866;48.374;10.766;2022-07-05T09:01:22;94.00;;;4.10;;
3700;SDS011;1866;48.374;10.766;2022-07-05T09:03:52;92.97;;;3.87;;
3700;SDS011;1866;48.374;10.766;2022-07-05T09:06:21;93.97;;;4.40;;
3700;SDS011;1866;48.374;10.766;2022-07-05T09:08:50;93.03;;;4.00;;
3700;SDS011;1866;48.374;10.766;2022-07-05T09:11:22;94.57;;;4.57;;
3700;SDS011;1866;48.374;10.766;2022-07-05T09:13:51;93.20;;;4.13;;
3700;SDS011;1866;48.374;10.766;2022-07-05T09:16:18;93.30;;;3.90;;
3700;SDS011;1866;48.374;10.766;2022-07-05T09:18:45;96.30;;;4.07;;
3700;SDS011;1866;48.374;10.766;2022-07-05T09:21:16;93.80;;;3.90;;
3700;SDS011;1866;48.374;10.766;2022-07-05T09:23:52;93.00;;;4.00;;
3700;SDS011;1866;48.374;10.766;2022-07-05T09:26:21;92.93;;;3.90;;
3700;SDS011;1866;48.374;10.766;2022-07-05T09:28:57;93.47;;;3.83;;
3700;SDS011;1866;48.374;10.766;2022-07-05T09:31:27;101.00;;;5.43;;
3700;SDS011;1866;48.374;10.766;2022-07-05T09:34:03;93.73;;;3.90;;
3700;SDS011;1866;48.374;10.766;2022-07-05T09:36:48;94.30;;;4.23;;
3700;SDS011;1866;48.374;10.766;2022-07-05T09:39:33;93.53;;;4.07;;
3700;SDS011;1866;48.374;10.766;2022-07-05T09:42:12;94.37;;;3.90;;
3700;SDS011;1866;48.374;10.766;2022-07-05T09:44:47;93.57;;;3.90;;
3700;SDS011;1866;48.374;10.766;2022-07-05T09:47:16;94.73;;;3.97;;
3700;SDS011;1866;48.374;10.766;2022-07-05T09:49:44;93.57;;;3.70;;
3700;SDS011;1866;48.374;10.766;2022-07-05T09:52:26;93.40;;;3.73;;
3700;SDS011;1866;48.374;10.766;2022-07-05T09:55:00;94.13;;;4.17;;
3700;SDS011;1866;48.374;10.766;2022-07-05T09:57:28;93.10;;;3.70;;
3700;SDS011;1866;48.374;10.766;2022-07-05T09:59:57;94.00;;;4.00;;
3700;SDS011;1866;48.374;10.766;2022-07-05T10:02:36;93.60;;;3.80;;
3700;SDS011;1866;48.374;10.766;2022-07-05T10:05:08;93.00;;;4.10;;
3700;SDS011;1866;48.374;10.766;2022-07-05T10:07:41;96.20;;;4.10;;
3700;SDS011;1866;48.374;10.766;2022-07-05T10:10:11;92.57;;;3.70;;
3700;SDS011;1866;48.374;10.766;2022-07-05T10:12:39;95.70;;;4.00;;
3700;SDS011;1866;48.374;10.766;2022-07-05T10:15:08;97.43;;;4.20;;
3700;SDS011;1866;48.374;10.766;2022-07-05T10:17:37;92.90;;;3.83;;
3700;SDS011;1866;48.374;10.766;2022-07-05T10:20:08;93.00;;;3.60;;
3700;SDS011;1866;48.374;10.766;2022-07-05T10:22:41;93.10;;;4.03;;
3700;SDS011;1866;48.374;10.766;2022-07-05T10:25:09;92.50;;;3.70;;
3700;SDS011;1866;48.374;10.766;2022-07-05T10:27:37;92.40;;;3.70;;
3700;SDS011;1866;48.374;10.766;2022-07-05T10:30:04;92.27;;;3.43;;
3700;SDS011;1866;48.374;10.766;2022-07-05T10:32:33;91.97;;;3.37;;
3700;SDS011;1866;48.374;10.766;2022-07-05T10:35:01;92.03;;;3.30;;
3700;SDS011;1866;48.374;10.766;2022-07-05T10:37:30;92.17;;;3.80;;
3700;SDS011;1866;48.374;10.766;2022-07-05T10:40:00;92.27;;;3.50;;
3700;SDS011;1866;48.374;10.766;2022-07-05T10:42:31;92.33;;;3.60;;
3700;SDS011;1866;48.374;10.766;2022-07-05T10:45:01;91.57;;;3.10;;
3700;SDS011;1866;48.374;10.766;2022-07-05T10:47:28;91.57;;;3.23;;
3700;SDS011;1866;48.374;10.766;2022-07-05T10:50:01;91.77;;;3.30;;
3700;SDS011;1866;48.374;10.766;2022-07-05T10:52:30;91.90;;;3.20;;
3700;SDS011;1866;48.374;10.766;2022-07-05T11:06:51;95.60;;;3.43;;
3700;SDS011;1866;48.374;10.766;2022-07-05T11:09:20;91.70;;;3.37;;
3700;SDS011;1866;48.374;10.766;2022-07-05T11:12:00;91.60;;;3.60;;
3700;SDS011;1866;48.374;10.766;2022-07-05T11:14:47;91.50;;;3.13;;
3700;SDS011;1866;48.374;10.766;2022-07-05T11:17:22;91.80;;;3.20;;
3700;SDS011;1866;48.374;10.766;2022-07-05T11:20:05;92.27;;;3.70;;
3700;SDS011;1866;48.374;10.766;2022-07-05T11:23:03;91.77;;;3.37;;
3700;SDS011;1866;48.374;10.766;2022-07-05T11:25:31;91.87;;;3.37;;
3700;SDS011;1866;48.374;10.766;2022-07-05T11:28:01;91.30;;;3.30;;
3700;SDS011;1866;48.374;10.766;2022-07-05T11:33:25;93.77;;;3.50;;
3700;SDS011;1866;48.374;10.766;2022-07-05T11:35:57;92.53;;;3.23;;
3700;SDS011;1866;48.374;10.766;2022-07-05T11:38:24;91.40;;;3.10;;
3700;SDS011;1866;48.374;10.766;2022-07-05T11:40:51;90.77;;;3.50;;
3700;SDS011;1866;48.374;10.766;2022-07-05T11:43:29;90.47;;;3.17;;
3700;SDS011;1866;48.374;10.766;2022-07-05T11:45:57;90.83;;;3.27;;
3700;SDS011;1866;48.374;10.766;2022-07-05T11:48:25;90.83;;;3.17;;
3700;SDS011;1866;48.374;10.766;2022-07-05T11:50:53;91.07;;;3.20;;
3700;SDS011;1866;48.374;10.766;2022-07-05T11:53:27;91.80;;;3.63;;
3700;SDS011;1866;48.374;10.766;2022-07-05T11:55:56;91.00;;;3.20;;
3700;SDS011;1866;48.374;10.766;2022-07-05T11:58:31;91.87;;;3.50;;
3700;SDS011;1866;48.374;10.766;2022-07-05T12:00:58;91.00;;;3.37;;
3700;SDS011;1866;48.374;10.766;2022-07-05T12:03:26;92.30;;;3.70;;
3700;SDS011;1866;48.374;10.766;2022-07-05T12:05:54;92.43;;;3.30;;
3700;SDS011;1866;48.374;10.766;2022-07-05T12:08:21;92.00;;;3.30;;
3700;SDS011;1866;48.374;10.766;2022-07-05T12:10:48;94.60;;;3.30;;
3700;SDS011;1866;48.374;10.766;2022-07-05T12:13:43;90.67;;;3.20;;
3700;SDS011;1866;48.374;10.766;2022-07-05T12:16:12;91.00;;;3.13;;
3700;SDS011;1866;48.374;10.766;2022-07-05T12:18:46;90.70;;;2.90;;
3700;SDS011;1866;48.374;10.766;2022-07-05T12:21:16;93.73;;;3.07;;
3700;SDS011;1866;48.374;10.766;2022-07-05T12:23:45;90.93;;;3.23;;
3700;SDS011;1866;48.374;10.766;2022-07-05T12:26:14;91.97;;;2.90;;
3700;SDS011;1866;48.374;10.766;2022-07-05T12:28:45;90.57;;;3.00;;
3700;SDS011;1866;48.374;10.766;2022-07-05T12:31:16;90.73;;;3.40;;
3700;SDS011;1866;48.374;10.766;2022-07-05T12:33:44;93.40;;;3.57;;
3700;SDS011;1866;48.374;10.766;2022-07-05T12:36:12;90.47;;;3.20;;
3700;SDS011;1866;48.374;10.766;2022-07-05T12:38:39;90.77;;;3.07;;
3700;SDS011;1866;48.374;10.766;2022-07-05T12:41:06;91.30;;;3.10;;
3700;SDS011;1866;48.374;10.766;2022-07-05T12:43:48;91.07;;;3.33;;
3700;SDS011;1866;48.374;10.766;2022-07-05T12:46:16;91.07;;;3.40;;
3700;SDS011;1866;48.374;10.766;2022-07-05T12:48:43;90.33;;;2.87;;
3700;SDS011;1866;48.374;10.766;2022-07-05T12:51:11;91.57;;;3.47;;
3700;SDS011;1866;48.374;10.766;2022-07-05T12:53:45;90.67;;;3.10;;
3700;SDS011;1866;48.374;10.766;2022-07-05T12:56:30;90.80;;;3.17;;
3700;SDS011;1866;48.374;10.766;2022-07-05T12:59:16;90.67;;;3.23;;
3700;SDS011;1866;48.374;10.766;2022-07-05T13:01:43;93.87;;;3.30;;
3700;SDS011;1866;48.374;10.766;2022-07-05T13:04:12;91.53;;;3.60;;
3700;SDS011;1866;48.374;10.766;2022-07-05T13:06:41;91.27;;;3.20;;
3700;SDS011;1866;48.374;10.766;2022-07-05T13:09:09;90.73;;;3.40;;
3700;SDS011;1866;48.374;10.766;2022-07-05T13:11:37;90.70;;;3.10;;
3700;SDS011;1866;48.374;10.766;2022-07-05T13:14:04;91.10;;;3.17;;
3700;SDS011;1866;48.374;10.766;2022-07-05T13:16:33;92.40;;;3.37;;
3700;SDS011;1866;48.374;10.766;2022-07-05T13:19:09;94.40;;;3.30;;
3700;SDS011;1866;48.374;10.766;2022-07-05T13:21:36;90.90;;;3.20;;
3700;SDS011;1866;48.374;10.766;2022-07-05T13:24:04;92.70;;;3.70;;
3700;SDS011;1866;48.374;10.766;2022-07-05T13:26:31;91.17;;;3.33;;
3700;SDS011;1866;48.374;10.766;2022-07-05T13:28:58;90.87;;;3.30;;
3700;SDS011;1866;48.374;10.766;2022-07-05T13:31:25;90.83;;;3.10;;
3700;SDS011;1866;48.374;10.766;2022-07-05T13:33:55;90.83;;;3.20;;
3700;SDS011;1866;48.374;10.766;2022-07-05T13:36:23;90.77;;;3.40;;
3700;SDS011;1866;48.374;10.766;2022-07-05T13:38:50;98.13;;;3.93;;
3700;SDS011;1866;48.374;10.766;2022-07-05T13:41:17;90.87;;;3.00;;
3700;SDS011;1866;48.374;10.766;2022-07-05T13:43:44;91.10;;;3.27;;
3700;SDS011;1866;48.374;10.766;2022-07-05T13:46:12;90.70;;;3.03;;
3700;SDS011;1866;48.374;10.766;2022-07-05T13:48:39;90.73;;;3.10;;
3700;SDS011;1866;48.374;10.766;2022-07-05T13:51:10;93.10;;;3.30;;
3700;SDS011;1866;48.374;10.766;2022-07-05T13:53:39;91.20;;;3.10;;
3700;SDS011;1866;48.374;10.766;2022-07-05T13:56:06;90.97;;;3.10;;
3700;SDS011;1866;48.374;10.766;2022-07-05T13:58:34;90.87;;;3.20;;
3700;SDS011;1866;48.374;10.766;2022-07-05T14:01:01;91.43;;;3.67;;
3700;SDS011;1866;48.374;10.766;2022-07-05T14:03:29;97.43;;;3.37;;
3700;SDS011;1866;48.374;10.766;2022-07-05T14:05:56;93.20;;;3.40;;
3700;SDS011;1866;48.374;10.766;2022-07-05T14:08:27;91.90;;;3.83;;
3700;SDS011;1866;48.374;10.766;2022-07-05T14:10:54;91.57;;;3.30;;
3700;SDS011;1866;48.374;10.766;2022-07-05T14:13:25;91.30;;;3.30;;
3700;SDS011;1866;48.374;10.766;2022-07-05T14:15:54;98.60;;;3.50;;
3700;SDS011;1866;48.374;10.766;2022-07-05T14:18:21;91.67;;;3.10;;
3700;SDS011;1866;48.374;10.766;2022-07-05T14:20:50;92.40;;;3.50;;
3700;SDS011;1866;48.374;10.766;2022-07-05T14:23:19;91.30;;;3.43;;
3700;SDS011;1866;48.374;10.766;2022-07-05T14:25:48;91.40;;;3.20;;
3700;SDS011;1866;48.374;10.766;2022-07-05T14:28:15;92.90;;;3.30;;
3700;SDS011;1866;48.374;10.766;2022-07-05T14:30:42;90.80;;;3.30;;
3700;SDS011;1866;48.374;10.766;2022-07-05T14:33:11;91.07;;;3.37;;
3700;SDS011;1866;48.374;10.766;2022-07-05T14:35:39;93.27;;;3.37;;
3700;SDS011;1866;48.374;10.766;2022-07-05T14:38:10;90.80;;;3.20;;
3700;SDS011;1866;48.374;10.766;2022-07-05T14:40:44;94.63;;;3.40;;
3700;SDS011;1866;48.374;10.766;2022-07-05T14:43:12;91.97;;;3.40;;
3700;SDS011;1866;48.374;10.766;2022-07-05T14:45:39;90.77;;;3.10;;
3700;SDS011;1866;48.374;10.766;2022-07-05T14:48:06;92.70;;;3.33;;
3700;SDS011;1866;48.374;10.766;2022-07-05T14:50:35;91.57;;;3.23;;
3700;SDS011;1866;48.374;10.766;2022-07-05T14:53:02;92.17;;;3.30;;
3700;SDS011;1866;48.374;10.766;2022-07-05T14:55:33;90.40;;;3.20;;
3700;SDS011;1866;48.374;10.766;2022-07-05T14:58:00;91.03;;;3.10;;
3700;SDS011;1866;48.374;10.766;2022-07-05T15:00:33;93.50;;;3.20;;
3700;SDS011;1866;48.374;10.766;2022-07-05T15:03:00;90.63;;;3.07;;
3700;SDS011;1866;48.374;10.766;2022-07-05T15:05:27;89.80;;;3.10;;
3700;SDS011;1866;48.374;10.766;2022-07-05T15:07:55;90.93;;;3.13;;
3700;SDS011;1866;48.374;10.766;2022-07-05T15:10:22;90.77;;;3.27;;